sensor_id;sensor_type;location;lat;lon;timestamp;temperature;humidity
4964;DHT22;2497;47.410;9.740;2023-04-10T00:02:00;5.60;99.90
4964;DHT22;2497;47.410;9.740;2023-04-10T00:04:29;5.60;99.90
4964;DHT22;2497;47.410;9.740;2023-04-10T00:06:58;5.50;99.90
4964;DHT22;2497;47.410;9.740;2023-04-10T00:09:25;5.50;99.90
4964;DHT22;2497;47.410;9.740;2023-04-10T00:11:54;5.50;99.90
4964;DHT22;2497;47.410;9.740;2023-04-10T00:14:22;5.40;99.90
4964;DHT22;2497;47.410;9.740;2023-04-10T00:16:49;5.40;99.90
4964;DHT22;2497;47.410;9.740;2023-04-10T00:19:17;5.40;99.90
4964;DHT22;2497;47.410;9.740;2023-04-10T00:21:44;5.30;99.90
4964;DHT22;2497;47.410;9.740;2023-04-10T00:24:13;5.30;99.90
4964;DHT22;2497;47.410;9.740;2023-04-10T00:26:40;5.20;99.90
4964;DHT22;2497;47.410;9.740;2023-04-10T00:29:07;5.20;99.90
4964;DHT22;2497;47.410;9.740;2023-04-10T00:31:34;5.10;99.90
4964;DHT22;2497;47.410;9.740;2023-04-10T00:34:01;5.10;99.90
4964;DHT22;2497;47.410;9.740;2023-04-10T00:36:28;5.00;99.90
4964;DHT22;2497;47.410;9.740;2023-04-10T00:38:56;5.00;99.90
4964;DHT22;2497;47.410;9.740;2023-04-10T00:41:25;4.90;99.90
4964;DHT22;2497;47.410;9.740;2023-04-10T00:43:55;4.80;99.90
4964;DHT22;2497;47.410;9.740;2023-04-10T00:46:22;4.80;99.90
4964;DHT22;2497;47.410;9.740;2023-04-10T00:48:53;4.80;99.90
4964;DHT22;2497;47.410;9.740;2023-04-10T00:51:21;4.80;99.90
4964;DHT22;2497;47.410;9.740;2023-04-10T00:53:48;4.80;99.90
4964;DHT22;2497;47.410;9.740;2023-04-10T00:56:16;4.80;99.90
4964;DHT22;2497;47.410;9.740;2023-04-10T00:58:45;4.90;99.90
4964;DHT22;2497;47.410;9.740;2023-04-10T01:01:13;4.80;99.90
4964;DHT22;2497;47.410;9.740;2023-04-10T01:03:41;4.70;99.90
4964;DHT22;2497;47.410;9.740;2023-04-10T01:06:15;4.60;99.90
4964;DHT22;2497;47.410;9.740;2023-04-10T01:08:59;4.50;99.90
4964;DHT22;2497;47.410;9.740;2023-04-10T01:11:32;4.60;99.90
4964;DHT22;2497;47.410;9.740;2023-04-10T01:14:14;4.50;99.90
4964;DHT22;2497;47.410;9.740;2023-04-10T01:16:48;4.50;99.90
4964;DHT22;2497;47.410;9.740;2023-04-10T01:19:26;4.40;99.90
4964;DHT22;2497;47.410;9.740;2023-04-10T01:21:59;4.50;99.90
4964;DHT22;2497;47.410;9.740;2023-04-10T01:24:41;4.40;99.90
4964;DHT22;2497;47.410;9.740;2023-04-10T01:27:29;4.20;99.90
4964;DHT22;2497;47.410;9.740;2023-04-10T01:30:02;4.20;99.90
4964;DHT22;2497;47.410;9.740;2023-04-10T01:32:34;4.10;99.90
4964;DHT22;2497;47.410;9.740;2023-04-10T01:35:05;4.00;99.90
4964;DHT22;2497;47.410;9.740;2023-04-10T01:37:36;4.00;99.90
4964;DHT22;2497;47.410;9.740;2023-04-10T01:40:08;4.00;99.90
4964;DHT22;2497;47.410;9.740;2023-04-10T01:42:40;4.00;99.90
4964;DHT22;2497;47.410;9.740;2023-04-10T01:45:16;4.00;99.90
4964;DHT22;2497;47.410;9.740;2023-04-10T01:47:44;4.20;99.90
4964;DHT22;2497;47.410;9.740;2023-04-10T01:50:12;4.20;99.90
4964;DHT22;2497;47.410;9.740;2023-04-10T01:52:40;4.30;99.90
4964;DHT22;2497;47.410;9.740;2023-04-10T01:55:09;4.40;99.90
4964;DHT22;2497;47.410;9.740;2023-04-10T01:57:36;4.50;99.90
4964;DHT22;2497;47.410;9.740;2023-04-10T02:00:04;4.50;99.90
4964;DHT22;2497;47.410;9.740;2023-04-10T02:02:33;4.60;99.90
4964;DHT22;2497;47.410;9.740;2023-04-10T02:05:01;4.60;99.90
4964;DHT22;2497;47.410;9.740;2023-04-10T02:07:34;4.60;99.90
4964;DHT22;2497;47.410;9.740;2023-04-10T02:10:08;4.50;99.90
4964;DHT22;2497;47.410;9.740;2023-04-10T02:12:40;4.50;99.90
4964;DHT22;2497;47.410;9.740;2023-04-10T02:15:11;4.40;99.90
4964;DHT22;2497;47.410;9.740;2023-04-10T02:17:46;4.30;99.90
4964;DHT22;2497;47.410;9.740;2023-04-10T02:20:14;4.30;99.90
4964;DHT22;2497;47.410;9.740;2023-04-10T02:22:43;4.30;99.90
4964;DHT22;2497;47.410;9.740;2023-04-10T02:25:11;4.30;99.90
4964;DHT22;2497;47.410;9.740;2023-04-10T02:27:38;4.20;99.90
4964;DHT22;2497;47.410;9.740;2023-04-10T02:30:07;4.20;99.90
4964;DHT22;2497;47.410;9.740;2023-04-10T02:32:34;4.20;99.90
4964;DHT22;2497;47.410;9.740;2023-04-10T02:35:03;4.30;99.90
4964;DHT22;2497;47.410;9.740;2023-04-10T02:37:31;4.30;99.90
4964;DHT22;2497;47.410;9.740;2023-04-10T02:39:59;4.20;99.90
4964;DHT22;2497;47.410;9.740;2023-04-10T02:42:26;4.20;99.90
4964;DHT22;2497;47.410;9.740;2023-04-10T02:44:53;4.20;99.90
4964;DHT22;2497;47.410;9.740;2023-04-10T02:47:20;4.10;99.90
4964;DHT22;2497;47.410;9.740;2023-04-10T02:49:48;4.10;99.90
4964;DHT22;2497;47.410;9.740;2023-04-10T02:52:17;4.20;99.90
4964;DHT22;2497;47.410;9.740;2023-04-10T02:54:44;4.30;99.90
4964;DHT22;2497;47.410;9.740;2023-04-10T02:57:12;4.30;99.90
4964;DHT22;2497;47.410;9.740;2023-04-10T02:59:39;4.40;99.90
4964;DHT22;2497;47.410;9.740;2023-04-10T03:02:06;4.40;99.90
4964;DHT22;2497;47.410;9.740;2023-04-10T03:04:34;4.40;99.90
4964;DHT22;2497;47.410;9.740;2023-04-10T03:07:01;4.30;99.90
4964;DHT22;2497;47.410;9.740;2023-04-10T03:09:30;4.10;99.90
4964;DHT22;2497;47.410;9.740;2023-04-10T03:11:57;4.10;99.90
4964;DHT22;2497;47.410;9.740;2023-04-10T03:14:24;4.10;99.90
4964;DHT22;2497;47.410;9.740;2023-04-10T03:16:51;4.10;99.90
4964;DHT22;2497;47.410;9.740;2023-04-10T03:19:18;4.00;99.90
4964;DHT22;2497;47.410;9.740;2023-04-10T03:21:47;4.00;99.90
4964;DHT22;2497;47.410;9.740;2023-04-10T03:24:14;3.90;99.90
4964;DHT22;2497;47.410;9.740;2023-04-10T03:26:42;3.90;99.90
4964;DHT22;2497;47.410;9.740;2023-04-10T03:29:10;4.00;99.90
4964;DHT22;2497;47.410;9.740;2023-04-10T03:31:43;4.00;99.90
4964;DHT22;2497;47.410;9.740;2023-04-10T03:34:12;4.00;99.90
4964;DHT22;2497;47.410;9.740;2023-04-10T03:36:39;4.10;99.90
4964;DHT22;2497;47.410;9.740;2023-04-10T03:39:06;4.20;99.90
4964;DHT22;2497;47.410;9.740;2023-04-10T03:41:35;4.10;99.90
4964;DHT22;2497;47.410;9.740;2023-04-10T03:44:04;4.10;99.90
4964;DHT22;2497;47.410;9.740;2023-04-10T03:46:31;4.10;99.90
4964;DHT22;2497;47.410;9.740;2023-04-10T03:48:59;4.00;99.90
4964;DHT22;2497;47.410;9.740;2023-04-10T03:51:28;3.90;99.90
4964;DHT22;2497;47.410;9.740;2023-04-10T03:53:56;3.80;99.90
4964;DHT22;2497;47.410;9.740;2023-04-10T03:56:23;3.70;99.90
4964;DHT22;2497;47.410;9.740;2023-04-10T03:58:50;3.60;99.90
4964;DHT22;2497;47.410;9.740;2023-04-10T04:01:19;3.50;99.90
4964;DHT22;2497;47.410;9.740;2023-04-10T04:03:47;3.40;99.90
4964;DHT22;2497;47.410;9.740;2023-04-10T04:06:14;3.30;99.90
4964;DHT22;2497;47.410;9.740;2023-04-10T04:08:43;3.40;99.90
4964;DHT22;2497;47.410;9.740;2023-04-10T04:11:10;3.50;99.90
4964;DHT22;2497;47.410;9.740;2023-04-10T04:13:37;3.50;99.90
4964;DHT22;2497;47.410;9.740;2023-04-10T04:16:05;3.50;99.90
4964;DHT22;2497;47.410;9.740;2023-04-10T04:18:34;3.50;99.90
4964;DHT22;2497;47.410;9.740;2023-04-10T04:21:04;3.50;99.90
4964;DHT22;2497;47.410;9.740;2023-04-10T04:23:33;3.60;99.90
4964;DHT22;2497;47.410;9.740;2023-04-10T04:26:00;3.80;99.90
4964;DHT22;2497;47.410;9.740;2023-04-10T04:28:27;3.80;99.90
4964;DHT22;2497;47.410;9.740;2023-04-10T04:30:54;3.80;99.90
4964;DHT22;2497;47.410;9.740;2023-04-10T04:33:21;3.80;99.90
4964;DHT22;2497;47.410;9.740;2023-04-10T04:35:53;3.90;99.90
4964;DHT22;2497;47.410;9.740;2023-04-10T04:38:25;3.80;99.90
4964;DHT22;2497;47.410;9.740;2023-04-10T04:40:52;3.80;99.90
4964;DHT22;2497;47.410;9.740;2023-04-10T04:43:21;3.80;99.90
4964;DHT22;2497;47.410;9.740;2023-04-10T04:45:48;3.80;99.90
4964;DHT22;2497;47.410;9.740;2023-04-10T04:48:16;3.80;99.90
4964;DHT22;2497;47.410;9.740;2023-04-10T04:50:43;3.70;99.90
4964;DHT22;2497;47.410;9.740;2023-04-10T04:53:12;3.60;99.90
4964;DHT22;2497;47.410;9.740;2023-04-10T04:55:40;3.60;99.90
4964;DHT22;2497;47.410;9.740;2023-04-10T04:58:07;3.60;99.90
4964;DHT22;2497;47.410;9.740;2023-04-10T05:00:34;3.60;99.90
4964;DHT22;2497;47.410;9.740;2023-04-10T05:03:01;3.60;99.90
4964;DHT22;2497;47.410;9.740;2023-04-10T05:05:30;3.80;99.90
4964;DHT22;2497;47.410;9.740;2023-04-10T05:07:57;3.90;99.90
4964;DHT22;2497;47.410;9.740;2023-04-10T05:10:26;3.90;99.90
4964;DHT22;2497;47.410;9.740;2023-04-10T05:12:55;3.90;99.90
4964;DHT22;2497;47.410;9.740;2023-04-10T05:15:22;3.90;99.90
4964;DHT22;2497;47.410;9.740;2023-04-10T05:17:50;4.00;99.90
4964;DHT22;2497;47.410;9.740;2023-04-10T05:20:18;4.00;99.90
4964;DHT22;2497;47.410;9.740;2023-04-10T05:22:46;4.20;99.90
4964;DHT22;2497;47.410;9.740;2023-04-10T05:25:13;4.20;99.90
4964;DHT22;2497;47.410;9.740;2023-04-10T05:27:42;4.30;99.90
4964;DHT22;2497;47.410;9.740;2023-04-10T05:30:12;4.30;99.90
4964;DHT22;2497;47.410;9.740;2023-04-10T05:32:39;4.40;99.90
4964;DHT22;2497;47.410;9.740;2023-04-10T05:35:14;4.50;99.90
4964;DHT22;2497;47.410;9.740;2023-04-10T05:37:41;4.60;99.90
4964;DHT22;2497;47.410;9.740;2023-04-10T05:40:09;4.50;99.90
4964;DHT22;2497;47.410;9.740;2023-04-10T05:42:36;4.40;99.90
4964;DHT22;2497;47.410;9.740;2023-04-10T05:45:05;4.30;99.90
4964;DHT22;2497;47.410;9.740;2023-04-10T05:47:34;4.30;99.90
4964;DHT22;2497;47.410;9.740;2023-04-10T05:50:01;4.30;99.90
4964;DHT22;2497;47.410;9.740;2023-04-10T05:52:30;4.30;99.90
4964;DHT22;2497;47.410;9.740;2023-04-10T05:54:58;4.40;99.90
4964;DHT22;2497;47.410;9.740;2023-04-10T05:57:29;4.50;99.90
4964;DHT22;2497;47.410;9.740;2023-04-10T05:59:56;4.60;99.90
4964;DHT22;2497;47.410;9.740;2023-04-10T06:02:24;4.70;99.90
4964;DHT22;2497;47.410;9.740;2023-04-10T06:04:53;4.80;99.90
4964;DHT22;2497;47.410;9.740;2023-04-10T06:07:20;5.00;99.90
4964;DHT22;2497;47.410;9.740;2023-04-10T06:09:48;5.20;99.90
4964;DHT22;2497;47.410;9.740;2023-04-10T06:12:16;5.40;99.90
4964;DHT22;2497;47.410;9.740;2023-04-10T06:14:43;5.60;99.90
4964;DHT22;2497;47.410;9.740;2023-04-10T06:17:10;5.80;99.90
4964;DHT22;2497;47.410;9.740;2023-04-10T06:19:38;6.00;99.90
4964;DHT22;2497;47.410;9.740;2023-04-10T06:22:06;6.20;99.90
4964;DHT22;2497;47.410;9.740;2023-04-10T06:24:33;6.40;99.90
4964;DHT22;2497;47.410;9.740;2023-04-10T06:27:00;6.60;99.90
4964;DHT22;2497;47.410;9.740;2023-04-10T06:29:28;6.60;99.90
4964;DHT22;2497;47.410;9.740;2023-04-10T06:31:55;6.80;99.90
4964;DHT22;2497;47.410;9.740;2023-04-10T06:34:22;7.00;99.90
4964;DHT22;2497;47.410;9.740;2023-04-10T06:36:51;7.20;99.90
4964;DHT22;2497;47.410;9.740;2023-04-10T06:39:18;7.40;99.90
4964;DHT22;2497;47.410;9.740;2023-04-10T06:41:46;7.50;99.90
4964;DHT22;2497;47.410;9.740;2023-04-10T06:44:13;7.70;99.90
4964;DHT22;2497;47.410;9.740;2023-04-10T06:46:40;8.20;99.90
4964;DHT22;2497;47.410;9.740;2023-04-10T06:49:07;8.70;99.90
4964;DHT22;2497;47.410;9.740;2023-04-10T06:51:35;9.10;99.90
4964;DHT22;2497;47.410;9.740;2023-04-10T06:54:03;9.70;99.90
4964;DHT22;2497;47.410;9.740;2023-04-10T06:56:31;9.40;99.90
4964;DHT22;2497;47.410;9.740;2023-04-10T06:58:58;9.20;99.90
4964;DHT22;2497;47.410;9.740;2023-04-10T07:01:25;9.20;99.90
4964;DHT22;2497;47.410;9.740;2023-04-10T07:03:52;9.20;99.90
4964;DHT22;2497;47.410;9.740;2023-04-10T07:06:20;9.40;99.90
4964;DHT22;2497;47.410;9.740;2023-04-10T07:08:48;9.60;99.90
4964;DHT22;2497;47.410;9.740;2023-04-10T07:11:16;10.40;99.90
4964;DHT22;2497;47.410;9.740;2023-04-10T07:13:45;10.20;99.90
4964;DHT22;2497;47.410;9.740;2023-04-10T07:16:12;10.00;99.90
4964;DHT22;2497;47.410;9.740;2023-04-10T07:18:39;10.20;99.90
4964;DHT22;2497;47.410;9.740;2023-04-10T07:21:09;10.30;99.90
4964;DHT22;2497;47.410;9.740;2023-04-10T07:23:37;10.10;99.90
4964;DHT22;2497;47.410;9.740;2023-04-10T07:26:05;10.30;99.90
4964;DHT22;2497;47.410;9.740;2023-04-10T07:28:34;9.70;99.90
4964;DHT22;2497;47.410;9.740;2023-04-10T07:31:01;9.80;99.90
4964;DHT22;2497;47.410;9.740;2023-04-10T07:33:28;9.90;99.90
4964;DHT22;2497;47.410;9.740;2023-04-10T07:36:03;9.80;99.90
4964;DHT22;2497;47.410;9.740;2023-04-10T07:38:30;10.10;99.90
4964;DHT22;2497;47.410;9.740;2023-04-10T07:41:07;10.60;99.90
4964;DHT22;2497;47.410;9.740;2023-04-10T07:43:38;11.00;99.90
4964;DHT22;2497;47.410;9.740;2023-04-10T07:46:06;10.90;99.90
4964;DHT22;2497;47.410;9.740;2023-04-10T07:48:33;11.00;99.90
4964;DHT22;2497;47.410;9.740;2023-04-10T07:51:02;11.00;99.90
4964;DHT22;2497;47.410;9.740;2023-04-10T07:53:35;10.80;99.90
4964;DHT22;2497;47.410;9.740;2023-04-10T07:56:03;10.80;99.90
4964;DHT22;2497;47.410;9.740;2023-04-10T07:58:31;10.60;99.90
4964;DHT22;2497;47.410;9.740;2023-04-10T08:01:00;11.40;99.90
4964;DHT22;2497;47.410;9.740;2023-04-10T08:03:42;11.40;99.90
4964;DHT22;2497;47.410;9.740;2023-04-10T08:06:13;11.40;99.90
4964;DHT22;2497;47.410;9.740;2023-04-10T08:08:44;11.30;99.90
4964;DHT22;2497;47.410;9.740;2023-04-10T08:11:22;11.80;99.90
4964;DHT22;2497;47.410;9.740;2023-04-10T08:13:50;11.70;99.90
4964;DHT22;2497;47.410;9.740;2023-04-10T08:16:22;11.40;99.90
4964;DHT22;2497;47.410;9.740;2023-04-10T08:18:49;11.20;99.90
4964;DHT22;2497;47.410;9.740;2023-04-10T08:21:22;11.50;99.90
4964;DHT22;2497;47.410;9.740;2023-04-10T08:23:54;11.70;99.90
4964;DHT22;2497;47.410;9.740;2023-04-10T08:26:25;11.70;99.90
4964;DHT22;2497;47.410;9.740;2023-04-10T08:28:55;12.90;99.90
4964;DHT22;2497;47.410;9.740;2023-04-10T08:31:28;13.00;99.90
4964;DHT22;2497;47.410;9.740;2023-04-10T08:33:56;13.00;99.90
4964;DHT22;2497;47.410;9.740;2023-04-10T08:36:23;12.80;99.90
4964;DHT22;2497;47.410;9.740;2023-04-10T08:38:52;13.00;99.90
4964;DHT22;2497;47.410;9.740;2023-04-10T08:41:20;13.20;99.90
4964;DHT22;2497;47.410;9.740;2023-04-10T08:43:47;13.40;99.90
4964;DHT22;2497;47.410;9.740;2023-04-10T08:46:14;13.40;99.90
4964;DHT22;2497;47.410;9.740;2023-04-10T08:48:47;14.00;99.90
4964;DHT22;2497;47.410;9.740;2023-04-10T08:51:20;14.90;99.90
4964;DHT22;2497;47.410;9.740;2023-04-10T08:53:50;15.70;99.90
4964;DHT22;2497;47.410;9.740;2023-04-10T08:56:19;16.20;99.90
4964;DHT22;2497;47.410;9.740;2023-04-10T08:58:49;17.20;99.90
4964;DHT22;2497;47.410;9.740;2023-04-10T09:01:20;16.20;99.90
4964;DHT22;2497;47.410;9.740;2023-04-10T09:03:48;15.70;99.90
4964;DHT22;2497;47.410;9.740;2023-04-10T09:06:18;15.20;99.90
4964;DHT22;2497;47.410;9.740;2023-04-10T09:08:45;15.10;99.90
4964;DHT22;2497;47.410;9.740;2023-04-10T09:11:13;15.20;99.90
4964;DHT22;2497;47.410;9.740;2023-04-10T09:13:42;15.40;99.90
4964;DHT22;2497;47.410;9.740;2023-04-10T09:16:13;15.70;99.90
4964;DHT22;2497;47.410;9.740;2023-04-10T09:18:43;15.50;99.90
4964;DHT22;2497;47.410;9.740;2023-04-10T09:21:18;15.10;99.90
4964;DHT22;2497;47.410;9.740;2023-04-10T09:23:47;14.80;99.90
4964;DHT22;2497;47.410;9.740;2023-04-10T09:26:23;14.70;99.90
4964;DHT22;2497;47.410;9.740;2023-04-10T09:28:59;15.10;99.90
4964;DHT22;2497;47.410;9.740;2023-04-10T09:31:29;16.80;99.90
4964;DHT22;2497;47.410;9.740;2023-04-10T09:34:12;17.00;99.90
4964;DHT22;2497;47.410;9.740;2023-04-10T09:36:44;18.00;99.90
4964;DHT22;2497;47.410;9.740;2023-04-10T09:39:18;18.50;99.90
4964;DHT22;2497;47.410;9.740;2023-04-10T09:41:47;19.20;99.90
4964;DHT22;2497;47.410;9.740;2023-04-10T09:44:17;19.70;99.90
4964;DHT22;2497;47.410;9.740;2023-04-10T09:46:45;19.30;99.90
4964;DHT22;2497;47.410;9.740;2023-04-10T09:49:14;19.80;99.90
4964;DHT22;2497;47.410;9.740;2023-04-10T09:51:45;20.30;99.90
4964;DHT22;2497;47.410;9.740;2023-04-10T09:54:14;20.30;99.90
4964;DHT22;2497;47.410;9.740;2023-04-10T09:56:44;19.80;99.90
4964;DHT22;2497;47.410;9.740;2023-04-10T09:59:13;19.30;99.90
4964;DHT22;2497;47.410;9.740;2023-04-10T10:01:40;18.40;99.90
4964;DHT22;2497;47.410;9.740;2023-04-10T10:04:08;17.50;99.90
4964;DHT22;2497;47.410;9.740;2023-04-10T10:06:37;17.10;99.90
4964;DHT22;2497;47.410;9.740;2023-04-10T10:09:06;17.30;99.90
4964;DHT22;2497;47.410;9.740;2023-04-10T10:11:35;17.30;99.90
4964;DHT22;2497;47.410;9.740;2023-04-10T10:14:03;17.40;99.90
4964;DHT22;2497;47.410;9.740;2023-04-10T10:16:36;18.20;99.90
4964;DHT22;2497;47.410;9.740;2023-04-10T10:19:08;18.20;99.90
4964;DHT22;2497;47.410;9.740;2023-04-10T10:21:37;17.70;99.90
4964;DHT22;2497;47.410;9.740;2023-04-10T10:24:08;17.40;99.90
4964;DHT22;2497;47.410;9.740;2023-04-10T10:26:38;17.60;99.90
4964;DHT22;2497;47.410;9.740;2023-04-10T10:29:06;17.60;99.90
4964;DHT22;2497;47.410;9.740;2023-04-10T10:31:35;17.90;99.90
4964;DHT22;2497;47.410;9.740;2023-04-10T10:36:46;19.20;99.90
4964;DHT22;2497;47.410;9.740;2023-04-10T10:39:25;19.20;99.90
4964;DHT22;2497;47.410;9.740;2023-04-10T10:42:01;20.10;99.90
4964;DHT22;2497;47.410;9.740;2023-04-10T10:44:37;20.70;99.90
4964;DHT22;2497;47.410;9.740;2023-04-10T10:47:14;20.90;99.90
4964;DHT22;2497;47.410;9.740;2023-04-10T10:49:57;20.00;99.90
4964;DHT22;2497;47.410;9.740;2023-04-10T10:52:43;19.90;99.90
4964;DHT22;2497;47.410;9.740;2023-04-10T10:55:29;19.80;99.90
4964;DHT22;2497;47.410;9.740;2023-04-10T10:57:59;19.70;99.90
4964;DHT22;2497;47.410;9.740;2023-04-10T11:03:28;19.80;99.90
4964;DHT22;2497;47.410;9.740;2023-04-10T11:05:57;20.70;99.90
4964;DHT22;2497;47.410;9.740;2023-04-10T11:08:40;21.70;99.90
4964;DHT22;2497;47.410;9.740;2023-04-10T11:11:16;22.80;99.90
4964;DHT22;2497;47.410;9.740;2023-04-10T11:14:11;23.00;99.90
4964;DHT22;2497;47.410;9.740;2023-04-10T11:16:45;22.20;99.90
4964;DHT22;2497;47.410;9.740;2023-04-10T11:19:12;22.80;99.90
4964;DHT22;2497;47.410;9.740;2023-04-10T11:22:01;23.00;99.90
4964;DHT22;2497;47.410;9.740;2023-04-10T11:27:38;22.20;99.90
4964;DHT22;2497;47.410;9.740;2023-04-10T11:33:03;22.60;99.90
4964;DHT22;2497;47.410;9.740;2023-04-10T11:35:31;22.40;99.90
4964;DHT22;2497;47.410;9.740;2023-04-10T11:38:14;23.30;99.90
4964;DHT22;2497;47.410;9.740;2023-04-10T11:40:58;23.00;99.90
4964;DHT22;2497;47.410;9.740;2023-04-10T11:43:27;23.30;99.90
4964;DHT22;2497;47.410;9.740;2023-04-10T11:46:04;23.30;99.90
4964;DHT22;2497;47.410;9.740;2023-04-10T11:48:32;23.80;99.90
4964;DHT22;2497;47.410;9.740;2023-04-10T11:51:06;24.60;99.90
4964;DHT22;2497;47.410;9.740;2023-04-10T11:53:34;25.10;99.90
4964;DHT22;2497;47.410;9.740;2023-04-10T11:56:01;25.50;99.90
4964;DHT22;2497;47.410;9.740;2023-04-10T11:58:29;26.10;99.90
4964;DHT22;2497;47.410;9.740;2023-04-10T12:00:59;26.00;99.90
4964;DHT22;2497;47.410;9.740;2023-04-10T12:03:36;25.20;99.90
4964;DHT22;2497;47.410;9.740;2023-04-10T12:06:06;24.40;99.90
4964;DHT22;2497;47.410;9.740;2023-04-10T12:08:35;25.40;99.90
4964;DHT22;2497;47.410;9.740;2023-04-10T12:11:03;25.10;99.90
4964;DHT22;2497;47.410;9.740;2023-04-10T12:13:34;24.40;99.90
4964;DHT22;2497;47.410;9.740;2023-04-10T12:16:06;23.50;99.90
4964;DHT22;2497;47.410;9.740;2023-04-10T12:18:34;23.60;99.90
4964;DHT22;2497;47.410;9.740;2023-04-10T12:21:02;23.10;99.90
4964;DHT22;2497;47.410;9.740;2023-04-10T12:23:30;22.80;99.90
4964;DHT22;2497;47.410;9.740;2023-04-10T12:26:09;23.60;99.90
4964;DHT22;2497;47.410;9.740;2023-04-10T12:28:41;24.80;99.90
4964;DHT22;2497;47.410;9.740;2023-04-10T12:31:12;25.00;99.90
4964;DHT22;2497;47.410;9.740;2023-04-10T12:33:49;25.50;99.90
4964;DHT22;2497;47.410;9.740;2023-04-10T12:36:19;26.20;99.90
4964;DHT22;2497;47.410;9.740;2023-04-10T12:38:57;27.10;99.90
4964;DHT22;2497;47.410;9.740;2023-04-10T12:41:25;26.80;99.90
4964;DHT22;2497;47.410;9.740;2023-04-10T12:44:07;25.50;99.90
4964;DHT22;2497;47.410;9.740;2023-04-10T12:46:38;26.10;99.90
4964;DHT22;2497;47.410;9.740;2023-04-10T12:49:10;26.20;99.90
4964;DHT22;2497;47.410;9.740;2023-04-10T12:51:45;26.50;99.90
4964;DHT22;2497;47.410;9.740;2023-04-10T12:54:27;26.90;99.90
4964;DHT22;2497;47.410;9.740;2023-04-10T12:56:54;26.10;99.90
4964;DHT22;2497;47.410;9.740;2023-04-10T12:59:31;26.20;99.90
4964;DHT22;2497;47.410;9.740;2023-04-10T13:01:58;26.90;99.90
4964;DHT22;2497;47.410;9.740;2023-04-10T13:04:26;28.60;99.90
4964;DHT22;2497;47.410;9.740;2023-04-10T13:06:54;29.00;99.90
4964;DHT22;2497;47.410;9.740;2023-04-10T13:09:21;29.30;99.90
4964;DHT22;2497;47.410;9.740;2023-04-10T13:11:50;29.50;99.90
4964;DHT22;2497;47.410;9.740;2023-04-10T13:14:17;29.80;99.90
4964;DHT22;2497;47.410;9.740;2023-04-10T13:16:46;28.90;99.90
4964;DHT22;2497;47.410;9.740;2023-04-10T13:19:13;27.70;99.90
4964;DHT22;2497;47.410;9.740;2023-04-10T13:21:40;27.40;99.90
4964;DHT22;2497;47.410;9.740;2023-04-10T13:24:07;27.50;99.90
4964;DHT22;2497;47.410;9.740;2023-04-10T13:26:35;28.30;99.90
4964;DHT22;2497;47.410;9.740;2023-04-10T13:29:02;28.30;99.90
4964;DHT22;2497;47.410;9.740;2023-04-10T13:31:29;27.20;99.90
4964;DHT22;2497;47.410;9.740;2023-04-10T13:33:57;27.20;99.90
4964;DHT22;2497;47.410;9.740;2023-04-10T13:36:25;27.60;99.90
4964;DHT22;2497;47.410;9.740;2023-04-10T13:38:52;27.90;99.90
4964;DHT22;2497;47.410;9.740;2023-04-10T13:41:19;27.80;99.90
4964;DHT22;2497;47.410;9.740;2023-04-10T13:43:46;28.20;99.90
4964;DHT22;2497;47.410;9.740;2023-04-10T13:46:13;27.70;99.90
4964;DHT22;2497;47.410;9.740;2023-04-10T13:48:43;27.10;99.90
4964;DHT22;2497;47.410;9.740;2023-04-10T13:51:19;25.90;99.90
4964;DHT22;2497;47.410;9.740;2023-04-10T13:53:52;25.60;99.90
4964;DHT22;2497;47.410;9.740;2023-04-10T13:56:22;25.70;99.90
4964;DHT22;2497;47.410;9.740;2023-04-10T13:58:49;25.20;99.90
4964;DHT22;2497;47.410;9.740;2023-04-10T14:01:16;25.70;99.90
4964;DHT22;2497;47.410;9.740;2023-04-10T14:03:43;26.10;99.90
4964;DHT22;2497;47.410;9.740;2023-04-10T14:06:12;25.30;99.90
4964;DHT22;2497;47.410;9.740;2023-04-10T14:08:39;24.70;99.90
4964;DHT22;2497;47.410;9.740;2023-04-10T14:11:07;24.30;99.90
4964;DHT22;2497;47.410;9.740;2023-04-10T14:13:34;24.20;99.90
4964;DHT22;2497;47.410;9.740;2023-04-10T14:16:03;24.40;99.90
4964;DHT22;2497;47.410;9.740;2023-04-10T14:18:30;23.40;99.90
4964;DHT22;2497;47.410;9.740;2023-04-10T14:20:57;23.30;99.90
4964;DHT22;2497;47.410;9.740;2023-04-10T14:23:27;23.30;99.90
4964;DHT22;2497;47.410;9.740;2023-04-10T14:25:54;23.00;99.90
4964;DHT22;2497;47.410;9.740;2023-04-10T14:28:21;22.80;99.90
4964;DHT22;2497;47.410;9.740;2023-04-10T14:30:50;22.10;99.90
4964;DHT22;2497;47.410;9.740;2023-04-10T14:33:18;22.00;99.90
4964;DHT22;2497;47.410;9.740;2023-04-10T14:35:46;21.10;99.90
4964;DHT22;2497;47.410;9.740;2023-04-10T14:38:13;20.90;99.90
4964;DHT22;2497;47.410;9.740;2023-04-10T14:40:42;21.00;99.90
4964;DHT22;2497;47.410;9.740;2023-04-10T14:43:13;20.60;99.90
4964;DHT22;2497;47.410;9.740;2023-04-10T14:45:40;20.40;99.90
4964;DHT22;2497;47.410;9.740;2023-04-10T14:48:08;20.10;99.90
4964;DHT22;2497;47.410;9.740;2023-04-10T14:50:35;19.80;99.90
4964;DHT22;2497;47.410;9.740;2023-04-10T14:53:02;19.70;99.90
4964;DHT22;2497;47.410;9.740;2023-04-10T14:55:31;19.50;99.90
4964;DHT22;2497;47.410;9.740;2023-04-10T14:57:59;19.10;99.90
4964;DHT22;2497;47.410;9.740;2023-04-10T15:00:28;18.80;99.90
4964;DHT22;2497;47.410;9.740;2023-04-10T15:02:55;18.70;99.90
4964;DHT22;2497;47.410;9.740;2023-04-10T15:05:24;18.60;99.90
4964;DHT22;2497;47.410;9.740;2023-04-10T15:07:51;18.40;99.90
4964;DHT22;2497;47.410;9.740;2023-04-10T15:10:18;18.20;99.90
4964;DHT22;2497;47.410;9.740;2023-04-10T15:12:46;18.30;99.90
4964;DHT22;2497;47.410;9.740;2023-04-10T15:15:14;18.20;99.90
4964;DHT22;2497;47.410;9.740;2023-04-10T15:17:41;18.30;99.90
4964;DHT22;2497;47.410;9.740;2023-04-10T15:20:10;18.50;99.90
4964;DHT22;2497;47.410;9.740;2023-04-10T15:22:38;18.70;99.90
4964;DHT22;2497;47.410;9.740;2023-04-10T15:25:08;18.90;99.90
4964;DHT22;2497;47.410;9.740;2023-04-10T15:27:36;19.30;99.90
4964;DHT22;2497;47.410;9.740;2023-04-10T15:30:05;19.50;99.90
4964;DHT22;2497;47.410;9.740;2023-04-10T15:32:36;19.50;99.90
4964;DHT22;2497;47.410;9.740;2023-04-10T15:35:04;19.30;99.90
4964;DHT22;2497;47.410;9.740;2023-04-10T15:37:34;19.00;99.90
4964;DHT22;2497;47.410;9.740;2023-04-10T15:40:21;18.30;99.90
4964;DHT22;2497;47.410;9.740;2023-04-10T15:42:49;18.10;99.90
4964;DHT22;2497;47.410;9.740;2023-04-10T15:45:18;18.10;99.90
4964;DHT22;2497;47.410;9.740;2023-04-10T15:47:47;18.10;99.90
4964;DHT22;2497;47.410;9.740;2023-04-10T15:50:14;17.80;99.90
4964;DHT22;2497;47.410;9.740;2023-04-10T15:52:43;17.90;99.90
4964;DHT22;2497;47.410;9.740;2023-04-10T15:55:15;17.80;99.90
4964;DHT22;2497;47.410;9.740;2023-04-10T15:57:42;17.90;99.90
4964;DHT22;2497;47.410;9.740;2023-04-10T16:00:16;17.70;99.90
4964;DHT22;2497;47.410;9.740;2023-04-10T16:02:45;17.50;99.90
4964;DHT22;2497;47.410;9.740;2023-04-10T16:05:17;17.30;99.90
4964;DHT22;2497;47.410;9.740;2023-04-10T16:07:47;17.00;99.90
4964;DHT22;2497;47.410;9.740;2023-04-10T16:10:16;16.90;99.90
4964;DHT22;2497;47.410;9.740;2023-04-10T16:12:45;16.70;99.90
4964;DHT22;2497;47.410;9.740;2023-04-10T16:15:15;16.80;99.90
4964;DHT22;2497;47.410;9.740;2023-04-10T16:17:43;16.70;99.90
4964;DHT22;2497;47.410;9.740;2023-04-10T16:20:17;16.60;99.90
4964;DHT22;2497;47.410;9.740;2023-04-10T16:22:46;16.80;99.90
4964;DHT22;2497;47.410;9.740;2023-04-10T16:25:14;16.70;99.90
4964;DHT22;2497;47.410;9.740;2023-04-10T16:27:47;16.60;99.90
4964;DHT22;2497;47.410;9.740;2023-04-10T16:30:14;16.50;99.90
4964;DHT22;2497;47.410;9.740;2023-04-10T16:32:46;16.40;99.90
4964;DHT22;2497;47.410;9.740;2023-04-10T16:35:16;16.30;99.90
4964;DHT22;2497;47.410;9.740;2023-04-10T16:37:43;16.40;99.90